sensor_id;sensor_type;location;lat;lon;timestamp;pressure;altitude;pressure_sealevel;temperature;humidity
63339;BME280;47485;51.378;-1.342;2023-02-18T00:00:23;100939.79;;;3.37;58.22
63339;BME280;47485;51.378;-1.342;2023-02-18T00:02:50;100939.30;;;4.35;57.84
63339;BME280;47485;51.378;-1.342;2023-02-18T00:05:17;100942.05;;;2.70;56.60
63339;BME280;47485;51.378;-1.342;2023-02-18T00:07:44;100938.75;;;4.27;53.54
63339;BME280;47485;51.378;-1.342;2023-02-18T00:10:12;100944.89;;;5.12;53.82
63339;BME280;47485;51.378;-1.342;2023-02-18T00:12:40;100944.46;;;3.80;52.99
63339;BME280;47485;51.378;-1.342;2023-02-18T00:15:08;100942.48;;;3.96;53.57
63339;BME280;47485;51.378;-1.342;2023-02-18T00:17:35;100947.09;;;3.11;55.17
63339;BME280;47485;51.378;-1.342;2023-02-18T00:20:04;100942.13;;;3.04;58.89
63339;BME280;47485;51.378;-1.342;2023-02-18T00:22:31;100951.62;;;3.59;59.56
63339;BME280;47485;51.378;-1.342;2023-02-18T00:24:58;100946.90;;;2.03;59.14
63339;BME280;47485;51.378;-1.342;2023-02-18T00:27:25;100944.74;;;2.48;61.42
63339;BME280;47485;51.378;-1.342;2023-02-18T00:29:51;100937.43;;;3.55;59.31
63339;BME280;47485;51.378;-1.342;2023-02-18T00:32:18;100931.12;;;3.57;60.98
63339;BME280;47485;51.378;-1.342;2023-02-18T00:34:45;100939.11;;;3.79;57.90
63339;BME280;47485;51.378;-1.342;2023-02-18T00:37:12;100929.30;;;3.40;57.51
63339;BME280;47485;51.378;-1.342;2023-02-18T00:39:39;100934.83;;;3.88;57.87
63339;BME280;47485;51.378;-1.342;2023-02-18T00:42:05;100946.00;;;2.12;60.46
63339;BME280;47485;51.378;-1.342;2023-02-18T00:44:32;100938.62;;;2.91;59.62
63339;BME280;47485;51.378;-1.342;2023-02-18T00:46:59;100936.12;;;1.97;59.43
63339;BME280;47485;51.378;-1.342;2023-02-18T00:49:26;100933.30;;;2.79;58.75
63339;BME280;47485;51.378;-1.342;2023-02-18T00:51:52;100919.17;;;3.66;56.88
63339;BME280;47485;51.378;-1.342;2023-02-18T00:54:19;100920.40;;;4.45;57.08
63339;BME280;47485;51.378;-1.342;2023-02-18T00:56:46;100921.37;;;3.37;59.85
63339;BME280;47485;51.378;-1.342;2023-02-18T00:59:13;100915.19;;;2.93;57.76
63339;BME280;47485;51.378;-1.342;2023-02-18T01:01:39;100919.22;;;3.18;56.04
63339;BME280;47485;51.378;-1.342;2023-02-18T01:04:07;100925.76;;;1.85;58.03
63339;BME280;47485;51.378;-1.342;2023-02-18T01:06:33;100936.28;;;2.71;58.42
63339;BME280;47485;51.378;-1.342;2023-02-18T01:09:00;100924.08;;;1.63;60.43
63339;BME280;47485;51.378;-1.342;2023-02-18T01:11:27;100936.27;;;1.58;61.26
63339;BME280;47485;51.378;-1.342;2023-02-18T01:13:53;100931.22;;;1.63;59.26
63339;BME280;47485;51.378;-1.342;2023-02-18T01:16:20;100929.89;;;2.61;56.74
63339;BME280;47485;51.378;-1.342;2023-02-18T01:18:47;100940.74;;;3.13;54.84
63339;BME280;47485;51.378;-1.342;2023-02-18T01:21:14;100946.94;;;2.89;55.03
63339;BME280;47485;51.378;-1.342;2023-02-18T01:23:42;100940.47;;;4.08;54.00
63339;BME280;47485;51.378;-1.342;2023-02-18T01:26:09;100943.36;;;4.58;52.41
63339;BME280;47485;51.378;-1.342;2023-02-18T01:28:37;100948.15;;;3.60;50.78
63339;BME280;47485;51.378;-1.342;2023-02-18T01:31:05;100949.86;;;4.47;48.34
63339;BME280;47485;51.378;-1.342;2023-02-18T01:33:33;100945.20;;;2.69;50.26
63339;BME280;47485;51.378;-1.342;2023-02-18T01:36:01;100937.32;;;3.34;51.01
63339;BME280;47485;51.378;-1.342;2023-02-18T01:38:28;100931.68;;;2.89;50.96
63339;BME280;47485;51.378;-1.342;2023-02-18T01:40:55;100922.43;;;2.43;50.33
63339;BME280;47485;51.378;-1.342;2023-02-18T01:43:22;100919.13;;;3.04;50.42
63339;BME280;47485;51.378;-1.342;2023-02-18T01:46:02;100920.13;;;2.93;51.43
63339;BME280;47485;51.378;-1.342;2023-02-18T01:48:32;100915.24;;;2.06;50.86
63339;BME280;47485;51.378;-1.342;2023-02-18T01:51:04;100913.91;;;3.38;51.16
63339;BME280;47485;51.378;-1.342;2023-02-18T01:53:37;100909.54;;;2.92;49.02
63339;BME280;47485;51.378;-1.342;2023-02-18T01:56:08;100914.43;;;2.61;48.79
63339;BME280;47485;51.378;-1.342;2023-02-18T01:58:37;100910.14;;;3.79;47.68
63339;BME280;47485;51.378;-1.342;2023-02-18T02:01:05;100904.54;;;4.06;48.42
63339;BME280;47485;51.378;-1.342;2023-02-18T02:03:32;100905.10;;;3.61;47.64
63339;BME280;47485;51.378;-1.342;2023-02-18T02:05:59;100906.50;;;3.00;47.81
63339;BME280;47485;51.378;-1.342;2023-02-18T02:08:27;100896.79;;;3.71;46.69
63339;BME280;47485;51.378;-1.342;2023-02-18T02:11:05;100902.87;;;4.06;47.77
63339;BME280;47485;51.378;-1.342;2023-02-18T02:13:47;100903.34;;;4.10;47.23
63339;BME280;47485;51.378;-1.342;2023-02-18T02:16:22;100899.14;;;3.18;47.79
63339;BME280;47485;51.378;-1.342;2023-02-18T02:19:01;100900.59;;;2.47;49.29
63339;BME280;47485;51.378;-1.342;2023-02-18T02:22:18;100897.77;;;1.38;49.52
63339;BME280;47485;51.378;-1.342;2023-02-18T02:24:57;100897.32;;;2.43;49.42
63339;BME280;47485;51.378;-1.342;2023-02-18T02:28:46;100879.99;;;3.61;47.82
63339;BME280;47485;51.378;-1.342;2023-02-18T02:31:41;100869.80;;;3.69;47.57
63339;BME280;47485;51.378;-1.342;2023-02-18T02:34:28;100875.54;;;3.48;49.74
63339;BME280;47485;51.378;-1.342;2023-02-18T02:37:05;100871.42;;;2.57;49.60
63339;BME280;47485;51.378;-1.342;2023-02-18T02:39:39;100860.92;;;3.35;48.76
63339;BME280;47485;51.378;-1.342;2023-02-18T02:42:12;100868.16;;;2.11;50.96
63339;BME280;47485;51.378;-1.342;2023-02-18T02:44:48;100864.50;;;2.45;50.66
63339;BME280;47485;51.378;-1.342;2023-02-18T02:47:21;100859.22;;;2.73;48.48
63339;BME280;47485;51.378;-1.342;2023-02-18T02:49:56;100859.62;;;3.59;46.22
63339;BME280;47485;51.378;-1.342;2023-02-18T02:52:30;100855.58;;;3.58;45.40
63339;BME280;47485;51.378;-1.342;2023-02-18T02:54:58;100848.63;;;3.32;47.98
63339;BME280;47485;51.378;-1.342;2023-02-18T02:57:45;100847.11;;;4.11;47.14
63339;BME280;47485;51.378;-1.342;2023-02-18T03:00:14;100834.24;;;2.06;49.69
63339;BME280;47485;51.378;-1.342;2023-02-18T03:02:54;100837.23;;;2.91;48.62
63339;BME280;47485;51.378;-1.342;2023-02-18T03:05:34;100832.49;;;2.26;50.49
63339;BME280;47485;51.378;-1.342;2023-02-18T03:08:13;100829.63;;;2.24;52.61
63339;BME280;47485;51.378;-1.342;2023-02-18T03:10:52;100812.04;;;1.85;51.92
63339;BME280;47485;51.378;-1.342;2023-02-18T03:13:28;100814.90;;;1.81;51.88
63339;BME280;47485;51.378;-1.342;2023-02-18T03:16:09;100810.79;;;2.31;49.21
63339;BME280;47485;51.378;-1.342;2023-02-18T03:18:40;100810.24;;;3.22;49.27
63339;BME280;47485;51.378;-1.342;2023-02-18T03:21:12;100811.51;;;3.52;50.03
63339;BME280;47485;51.378;-1.342;2023-02-18T03:23:44;100799.82;;;1.02;51.53
63339;BME280;47485;51.378;-1.342;2023-02-18T03:26:15;100797.30;;;2.90;52.07
63339;BME280;47485;51.378;-1.342;2023-02-18T03:28:45;100790.62;;;1.13;54.45
63339;BME280;47485;51.378;-1.342;2023-02-18T03:31:17;100784.83;;;2.57;51.98
63339;BME280;47485;51.378;-1.342;2023-02-18T03:33:49;100787.75;;;1.61;51.69
63339;BME280;47485;51.378;-1.342;2023-02-18T03:36:18;100788.85;;;0.86;51.86
63339;BME280;47485;51.378;-1.342;2023-02-18T03:38:50;100787.57;;;2.18;51.61
63339;BME280;47485;51.378;-1.342;2023-02-18T03:41:19;100784.34;;;1.34;52.83
63339;BME280;47485;51.378;-1.342;2023-02-18T03:43:49;100778.63;;;0.91;52.11
63339;BME280;47485;51.378;-1.342;2023-02-18T03:46:16;100779.57;;;2.08;50.58
63339;BME280;47485;51.378;-1.342;2023-02-18T03:48:43;100773.13;;;2.02;51.66
63339;BME280;47485;51.378;-1.342;2023-02-18T03:51:11;100770.62;;;2.27;49.11
63339;BME280;47485;51.378;-1.342;2023-02-18T03:53:38;100774.63;;;2.81;48.67
63339;BME280;47485;51.378;-1.342;2023-02-18T03:56:05;100780.08;;;3.00;51.53
63339;BME280;47485;51.378;-1.342;2023-02-18T03:58:32;100782.41;;;2.88;53.14
63339;BME280;47485;51.378;-1.342;2023-02-18T04:00:59;100783.77;;;2.38;52.79
63339;BME280;47485;51.378;-1.342;2023-02-18T04:03:26;100786.47;;;3.39;52.42
63339;BME280;47485;51.378;-1.342;2023-02-18T04:05:53;100777.90;;;1.62;52.64
63339;BME280;47485;51.378;-1.342;2023-02-18T04:08:19;100784.65;;;2.64;53.92
63339;BME280;47485;51.378;-1.342;2023-02-18T04:10:46;100789.80;;;2.15;56.76
63339;BME280;47485;51.378;-1.342;2023-02-18T04:13:14;100783.46;;;2.94;54.95
63339;BME280;47485;51.378;-1.342;2023-02-18T04:15:41;100775.45;;;2.44;55.26
63339;BME280;47485;51.378;-1.342;2023-02-18T04:18:08;100780.02;;;1.37;57.26
63339;BME280;47485;51.378;-1.342;2023-02-18T04:20:34;100783.62;;;1.77;55.96
63339;BME280;47485;51.378;-1.342;2023-02-18T04:23:01;100782.47;;;0.70;56.99
63339;BME280;47485;51.378;-1.342;2023-02-18T04:25:28;100787.15;;;2.23;56.50
63339;BME280;47485;51.378;-1.342;2023-02-18T04:27:55;100783.40;;;1.23;57.32
63339;BME280;47485;51.378;-1.342;2023-02-18T04:30:22;100784.45;;;1.45;57.88
63339;BME280;47485;51.378;-1.342;2023-02-18T04:32:48;100785.24;;;1.75;54.98
63339;BME280;47485;51.378;-1.342;2023-02-18T04:35:15;100783.49;;;1.91;54.60
63339;BME280;47485;51.378;-1.342;2023-02-18T04:37:42;100776.87;;;1.10;56.82
63339;BME280;47485;51.378;-1.342;2023-02-18T04:40:09;100782.79;;;1.52;56.30
63339;BME280;47485;51.378;-1.342;2023-02-18T04:42:38;100781.12;;;3.30;54.25
63339;BME280;47485;51.378;-1.342;2023-02-18T04:45:05;100782.92;;;2.74;53.69
63339;BME280;47485;51.378;-1.342;2023-02-18T04:47:32;100778.53;;;1.89;54.89
63339;BME280;47485;51.378;-1.342;2023-02-18T04:50:01;100775.79;;;2.53;54.64
63339;BME280;47485;51.378;-1.342;2023-02-18T04:52:28;100774.25;;;2.41;55.64
63339;BME280;47485;51.378;-1.342;2023-02-18T04:54:55;100767.43;;;2.73;54.43
63339;BME280;47485;51.378;-1.342;2023-02-18T04:57:22;100765.30;;;2.05;54.58
63339;BME280;47485;51.378;-1.342;2023-02-18T04:59:49;100763.26;;;2.40;54.76
63339;BME280;47485;51.378;-1.342;2023-02-18T05:02:15;100776.41;;;2.03;56.16
63339;BME280;47485;51.378;-1.342;2023-02-18T05:04:42;100764.63;;;1.07;57.19
63339;BME280;47485;51.378;-1.342;2023-02-18T05:07:14;100759.50;;;1.46;57.44
63339;BME280;47485;51.378;-1.342;2023-02-18T05:09:40;100772.93;;;0.69;57.12
63339;BME280;47485;51.378;-1.342;2023-02-18T05:12:07;100775.25;;;1.38;57.96
63339;BME280;47485;51.378;-1.342;2023-02-18T05:14:34;100769.45;;;1.71;56.66
63339;BME280;47485;51.378;-1.342;2023-02-18T05:17:02;100770.03;;;2.07;57.09
63339;BME280;47485;51.378;-1.342;2023-02-18T05:19:29;100777.13;;;2.05;57.02
63339;BME280;47485;51.378;-1.342;2023-02-18T05:21:55;100780.30;;;2.20;56.07
63339;BME280;47485;51.378;-1.342;2023-02-18T05:24:22;100779.16;;;2.03;55.43
63339;BME280;47485;51.378;-1.342;2023-02-18T05:26:49;100774.15;;;1.94;57.20
63339;BME280;47485;51.378;-1.342;2023-02-18T05:29:16;100774.88;;;2.99;55.30
63339;BME280;47485;51.378;-1.342;2023-02-18T05:31:43;100774.97;;;1.61;55.31
63339;BME280;47485;51.378;-1.342;2023-02-18T05:34:10;100773.45;;;2.51;57.11
63339;BME280;47485;51.378;-1.342;2023-02-18T05:36:37;100778.40;;;2.98;57.38
63339;BME280;47485;51.378;-1.342;2023-02-18T05:39:04;100773.07;;;3.11;54.75
63339;BME280;47485;51.378;-1.342;2023-02-18T05:41:31;100778.42;;;4.07;53.86
63339;BME280;47485;51.378;-1.342;2023-02-18T05:43:58;100775.58;;;2.30;54.38
63339;BME280;47485;51.378;-1.342;2023-02-18T05:46:24;100774.93;;;1.90;57.43
63339;BME280;47485;51.378;-1.342;2023-02-18T05:48:51;100769.40;;;2.21;55.61
63339;BME280;47485;51.378;-1.342;2023-02-18T05:51:18;100765.63;;;2.51;55.75
63339;BME280;47485;51.378;-1.342;2023-02-18T05:53:45;100770.94;;;2.49;54.98
63339;BME280;47485;51.378;-1.342;2023-02-18T05:56:13;100763.35;;;2.12;55.42
63339;BME280;47485;51.378;-1.342;2023-02-18T05:58:41;100768.15;;;2.44;55.12
63339;BME280;47485;51.378;-1.342;2023-02-18T06:01:08;100757.21;;;2.39;55.71
63339;BME280;47485;51.378;-1.342;2023-02-18T06:03:35;100765.28;;;2.05;56.59
63339;BME280;47485;51.378;-1.342;2023-02-18T06:06:02;100758.82;;;2.20;55.63
63339;BME280;47485;51.378;-1.342;2023-02-18T06:08:28;100761.60;;;2.28;57.99
63339;BME280;47485;51.378;-1.342;2023-02-18T06:10:55;100759.64;;;2.56;56.84
63339;BME280;47485;51.378;-1.342;2023-02-18T06:13:22;100755.64;;;2.28;57.35
63339;BME280;47485;51.378;-1.342;2023-02-18T06:15:49;100753.79;;;2.81;55.71
63339;BME280;47485;51.378;-1.342;2023-02-18T06:18:17;100750.17;;;1.58;57.70
63339;BME280;47485;51.378;-1.342;2023-02-18T06:20:45;100761.17;;;1.50;59.67
63339;BME280;47485;51.378;-1.342;2023-02-18T06:23:12;100758.73;;;2.30;58.44
63339;BME280;47485;51.378;-1.342;2023-02-18T06:25:39;100772.95;;;3.52;57.16
63339;BME280;47485;51.378;-1.342;2023-02-18T06:28:06;100767.59;;;1.81;58.29
63339;BME280;47485;51.378;-1.342;2023-02-18T06:30:33;100765.42;;;2.08;57.91
63339;BME280;47485;51.378;-1.342;2023-02-18T06:33:00;100765.65;;;2.82;55.19
63339;BME280;47485;51.378;-1.342;2023-02-18T06:35:27;100767.85;;;2.27;56.50
63339;BME280;47485;51.378;-1.342;2023-02-18T06:37:54;100769.65;;;1.74;57.49
63339;BME280;47485;51.378;-1.342;2023-02-18T06:40:21;100770.03;;;2.05;57.71
63339;BME280;47485;51.378;-1.342;2023-02-18T06:42:48;100763.61;;;2.04;58.34
63339;BME280;47485;51.378;-1.342;2023-02-18T06:45:15;100757.14;;;2.74;57.27
63339;BME280;47485;51.378;-1.342;2023-02-18T06:47:41;100754.40;;;2.28;58.81
63339;BME280;47485;51.378;-1.342;2023-02-18T06:50:09;100755.82;;;2.92;56.22
63339;BME280;47485;51.378;-1.342;2023-02-18T06:52:37;100753.62;;;1.49;55.47
63339;BME280;47485;51.378;-1.342;2023-02-18T06:55:04;100754.01;;;2.29;55.81
63339;BME280;47485;51.378;-1.342;2023-02-18T06:57:31;100750.55;;;2.07;57.86
63339;BME280;47485;51.378;-1.342;2023-02-18T06:59:58;100746.45;;;2.66;57.86
63339;BME280;47485;51.378;-1.342;2023-02-18T07:02:25;100747.61;;;1.59;58.44
63339;BME280;47485;51.378;-1.342;2023-02-18T07:04:52;100760.65;;;2.44;58.85
63339;BME280;47485;51.378;-1.342;2023-02-18T07:07:19;100756.25;;;1.78;58.41
63339;BME280;47485;51.378;-1.342;2023-02-18T07:09:46;100753.81;;;2.11;58.65
63339;BME280;47485;51.378;-1.342;2023-02-18T07:12:13;100748.35;;;2.39;55.31
63339;BME280;47485;51.378;-1.342;2023-02-18T07:14:41;100754.88;;;4.02;56.32
63339;BME280;47485;51.378;-1.342;2023-02-18T07:17:08;100757.79;;;3.12;58.64
63339;BME280;47485;51.378;-1.342;2023-02-18T07:19:34;100763.05;;;1.95;59.25
63339;BME280;47485;51.378;-1.342;2023-02-18T07:22:01;100755.45;;;1.86;55.35
63339;BME280;47485;51.378;-1.342;2023-02-18T07:24:28;100759.15;;;3.65;53.82
63339;BME280;47485;51.378;-1.342;2023-02-18T07:26:54;100765.31;;;1.41;56.40
63339;BME280;47485;51.378;-1.342;2023-02-18T07:29:21;100758.15;;;1.74;58.13
63339;BME280;47485;51.378;-1.342;2023-02-18T07:31:48;100766.67;;;3.25;57.20
63339;BME280;47485;51.378;-1.342;2023-02-18T07:34:15;100764.09;;;3.41;55.36
63339;BME280;47485;51.378;-1.342;2023-02-18T07:36:42;100759.15;;;3.31;53.64
63339;BME280;47485;51.378;-1.342;2023-02-18T07:39:08;100762.34;;;3.11;54.37
63339;BME280;47485;51.378;-1.342;2023-02-18T07:41:36;100762.84;;;3.32;51.38
63339;BME280;47485;51.378;-1.342;2023-02-18T07:44:03;100762.85;;;2.35;53.55
63339;BME280;47485;51.378;-1.342;2023-02-18T07:46:31;100773.04;;;2.65;54.45
63339;BME280;47485;51.378;-1.342;2023-02-18T07:48:57;100782.73;;;3.59;56.55
63339;BME280;47485;51.378;-1.342;2023-02-18T07:51:24;100780.02;;;3.00;55.10
63339;BME280;47485;51.378;-1.342;2023-02-18T07:53:51;100773.06;;;2.88;55.41
63339;BME280;47485;51.378;-1.342;2023-02-18T07:56:18;100770.74;;;2.49;54.17
63339;BME280;47485;51.378;-1.342;2023-02-18T07:58:44;100776.64;;;3.00;54.51
63339;BME280;47485;51.378;-1.342;2023-02-18T08:01:14;100776.47;;;4.35;52.25
63339;BME280;47485;51.378;-1.342;2023-02-18T08:03:41;100781.94;;;3.69;55.29
63339;BME280;47485;51.378;-1.342;2023-02-18T08:06:19;100785.57;;;2.49;58.24
63339;BME280;47485;51.378;-1.342;2023-02-18T08:08:46;100784.75;;;3.65;55.91
63339;BME280;47485;51.378;-1.342;2023-02-18T08:11:13;100788.04;;;2.81;55.46
63339;BME280;47485;51.378;-1.342;2023-02-18T08:13:40;100790.50;;;2.85;57.25
63339;BME280;47485;51.378;-1.342;2023-02-18T08:16:08;100790.90;;;3.43;56.32
63339;BME280;47485;51.378;-1.342;2023-02-18T08:18:35;100795.27;;;3.59;54.23
63339;BME280;47485;51.378;-1.342;2023-02-18T08:21:02;100789.14;;;3.40;53.67
63339;BME280;47485;51.378;-1.342;2023-02-18T08:23:29;100790.48;;;3.12;55.07
63339;BME280;47485;51.378;-1.342;2023-02-18T08:25:55;100787.60;;;3.45;54.71
63339;BME280;47485;51.378;-1.342;2023-02-18T08:28:23;100788.39;;;2.28;58.84
63339;BME280;47485;51.378;-1.342;2023-02-18T08:30:52;100784.02;;;2.74;56.23
63339;BME280;47485;51.378;-1.342;2023-02-18T08:33:20;100788.96;;;3.93;53.35
63339;BME280;47485;51.378;-1.342;2023-02-18T08:35:49;100790.85;;;3.21;56.57
63339;BME280;47485;51.378;-1.342;2023-02-18T08:38:16;100794.50;;;3.40;56.02
63339;BME280;47485;51.378;-1.342;2023-02-18T08:40:44;100802.72;;;3.87;57.82
63339;BME280;47485;51.378;-1.342;2023-02-18T08:43:12;100807.95;;;2.54;57.60
63339;BME280;47485;51.378;-1.342;2023-02-18T08:45:39;100800.98;;;5.18;54.26
63339;BME280;47485;51.378;-1.342;2023-02-18T08:48:06;100796.71;;;3.62;55.63
63339;BME280;47485;51.378;-1.342;2023-02-18T08:50:34;100793.52;;;3.85;57.17
63339;BME280;47485;51.378;-1.342;2023-02-18T08:53:01;100790.28;;;3.46;55.35
63339;BME280;47485;51.378;-1.342;2023-02-18T08:55:29;100801.62;;;3.64;55.21
63339;BME280;47485;51.378;-1.342;2023-02-18T08:57:56;100794.48;;;3.47;55.99
63339;BME280;47485;51.378;-1.342;2023-02-18T09:00:23;100795.71;;;2.85;57.23
63339;BME280;47485;51.378;-1.342;2023-02-18T09:02:50;100792.67;;;3.36;56.75
63339;BME280;47485;51.378;-1.342;2023-02-18T09:05:17;100784.67;;;3.36;61.37
63339;BME280;47485;51.378;-1.342;2023-02-18T09:07:43;100782.16;;;2.86;62.38
63339;BME280;47485;51.378;-1.342;2023-02-18T09:10:10;100776.23;;;3.03;62.44
63339;BME280;47485;51.378;-1.342;2023-02-18T09:12:38;100775.98;;;2.80;63.27
63339;BME280;47485;51.378;-1.342;2023-02-18T09:15:05;100775.08;;;2.93;61.42
63339;BME280;47485;51.378;-1.342;2023-02-18T09:17:32;100762.58;;;2.09;62.64
63339;BME280;47485;51.378;-1.342;2023-02-18T09:19:59;100758.58;;;1.83;61.73
63339;BME280;47485;51.378;-1.342;2023-02-18T09:22:26;100757.40;;;2.92;63.47
63339;BME280;47485;51.378;-1.342;2023-02-18T09:24:53;100747.77;;;2.16;62.07
63339;BME280;47485;51.378;-1.342;2023-02-18T09:27:20;100746.34;;;2.39;61.82
63339;BME280;47485;51.378;-1.342;2023-02-18T09:29:47;100752.75;;;2.90;59.49
63339;BME280;47485;51.378;-1.342;2023-02-18T09:32:14;100760.93;;;2.62;60.70
63339;BME280;47485;51.378;-1.342;2023-02-18T09:34:41;100760.67;;;1.70;61.18
63339;BME280;47485;51.378;-1.342;2023-02-18T09:37:07;100772.00;;;2.05;64.37
63339;BME280;47485;51.378;-1.342;2023-02-18T09:39:34;100769.28;;;3.76;59.22
63339;BME280;47485;51.378;-1.342;2023-02-18T09:42:04;100769.03;;;3.34;58.03
63339;BME280;47485;51.378;-1.342;2023-02-18T09:44:35;100780.91;;;3.04;59.96
63339;BME280;47485;51.378;-1.342;2023-02-18T09:47:08;100786.61;;;3.98;57.06
63339;BME280;47485;51.378;-1.342;2023-02-18T09:49:40;100790.69;;;4.21;57.90
63339;BME280;47485;51.378;-1.342;2023-02-18T09:52:12;100799.09;;;2.82;57.34
63339;BME280;47485;51.378;-1.342;2023-02-18T09:54:40;100804.53;;;4.68;54.61
63339;BME280;47485;51.378;-1.342;2023-02-18T09:57:17;100805.63;;;4.38;54.64
63339;BME280;47485;51.378;-1.342;2023-02-18T09:59:50;100810.42;;;4.28;54.89
63339;BME280;47485;51.378;-1.342;2023-02-18T10:02:21;100799.59;;;4.93;56.23
63339;BME280;47485;51.378;-1.342;2023-02-18T10:04:48;100794.73;;;3.49;58.77
63339;BME280;47485;51.378;-1.342;2023-02-18T10:07:20;100794.36;;;3.29;58.46
63339;BME280;47485;51.378;-1.342;2023-02-18T10:09:51;100793.30;;;3.89;57.57
63339;BME280;47485;51.378;-1.342;2023-02-18T10:12:19;100784.79;;;4.36;55.76
63339;BME280;47485;51.378;-1.342;2023-02-18T10:14:49;100782.66;;;4.58;56.38
63339;BME280;47485;51.378;-1.342;2023-02-18T10:17:17;100775.21;;;4.49;55.63
63339;BME280;47485;51.378;-1.342;2023-02-18T10:19:47;100776.52;;;3.58;60.40
63339;BME280;47485;51.378;-1.342;2023-02-18T10:22:15;100770.71;;;3.75;62.47
63339;BME280;47485;51.378;-1.342;2023-02-18T10:24:45;100776.62;;;3.30;59.97
63339;BME280;47485;51.378;-1.342;2023-02-18T10:27:18;100761.66;;;2.99;61.08
63339;BME280;47485;51.378;-1.342;2023-02-18T10:29:47;100759.62;;;4.78;59.45
63339;BME280;47485;51.378;-1.342;2023-02-18T10:32:20;100751.58;;;3.37;60.41
63339;BME280;47485;51.378;-1.342;2023-02-18T10:34:51;100759.47;;;2.69;61.05
63339;BME280;47485;51.378;-1.342;2023-02-18T10:37:30;100753.62;;;2.72;61.06
63339;BME280;47485;51.378;-1.342;2023-02-18T10:40:08;100759.42;;;4.23;60.49
63339;BME280;47485;51.378;-1.342;2023-02-18T10:42:45;100768.12;;;3.64;57.65
63339;BME280;47485;51.378;-1.342;2023-02-18T10:45:25;100777.70;;;3.59;58.90
63339;BME280;47485;51.378;-1.342;2023-02-18T10:48:05;100771.59;;;3.01;60.02
63339;BME280;47485;51.378;-1.342;2023-02-18T10:50:37;100783.51;;;3.83;57.80
63339;BME280;47485;51.378;-1.342;2023-02-18T10:53:10;100791.67;;;4.78;56.43
63339;BME280;47485;51.378;-1.342;2023-02-18T10:55:40;100799.21;;;5.31;55.51
63339;BME280;47485;51.378;-1.342;2023-02-18T10:58:25;100800.48;;;3.77;57.13
63339;BME280;47485;51.378;-1.342;2023-02-18T11:00:53;100809.88;;;4.28;57.32
63339;BME280;47485;51.378;-1.342;2023-02-18T11:03:22;100805.09;;;4.23;57.34
63339;BME280;47485;51.378;-1.342;2023-02-18T11:05:51;100806.49;;;5.15;56.12
63339;BME280;47485;51.378;-1.342;2023-02-18T11:08:21;100801.37;;;5.50;54.78
63339;BME280;47485;51.378;-1.342;2023-02-18T11:10:49;100802.98;;;5.35;53.70
63339;BME280;47485;51.378;-1.342;2023-02-18T11:13:23;100804.47;;;5.02;54.67
63339;BME280;47485;51.378;-1.342;2023-02-18T11:15:57;100805.26;;;4.28;56.37
63339;BME280;47485;51.378;-1.342;2023-02-18T11:18:29;100807.89;;;3.58;58.01
63339;BME280;47485;51.378;-1.342;2023-02-18T11:20:59;100805.50;;;3.44;59.08
63339;BME280;47485;51.378;-1.342;2023-02-18T11:23:26;100800.98;;;4.65;56.43
63339;BME280;47485;51.378;-1.342;2023-02-18T11:25:56;100807.22;;;4.79;57.61
63339;BME280;47485;51.378;-1.342;2023-02-18T11:28:29;100801.61;;;4.43;55.90
63339;BME280;47485;51.378;-1.342;2023-02-18T11:31:00;100801.48;;;4.97;54.85
63339;BME280;47485;51.378;-1.342;2023-02-18T11:33:32;100806.50;;;4.45;55.17
63339;BME280;47485;51.378;-1.342;2023-02-18T11:36:04;100805.91;;;5.28;53.18
63339;BME280;47485;51.378;-1.342;2023-02-18T11:38:45;100814.90;;;5.32;55.91
63339;BME280;47485;51.378;-1.342;2023-02-18T11:41:16;100817.91;;;4.35;58.66
63339;BME280;47485;51.378;-1.342;2023-02-18T11:43:46;100821.17;;;4.27;56.83
63339;BME280;47485;51.378;-1.342;2023-02-18T11:46:16;100817.35;;;5.13;57.29
63339;BME280;47485;51.378;-1.342;2023-02-18T11:48:44;100816.09;;;4.22;57.01
63339;BME280;47485;51.378;-1.342;2023-02-18T11:51:16;100814.49;;;4.98;55.43
63339;BME280;47485;51.378;-1.342;2023-02-18T11:53:55;100808.97;;;5.43;54.59
63339;BME280;47485;51.378;-1.342;2023-02-18T11:56:23;100812.38;;;4.84;54.51
63339;BME280;47485;51.378;-1.342;2023-02-18T11:58:50;100812.56;;;5.57;55.97
63339;BME280;47485;51.378;-1.342;2023-02-18T12:01:27;100811.93;;;5.16;55.31
63339;BME280;47485;51.378;-1.342;2023-02-18T12:04:00;100807.13;;;6.05;53.99
63339;BME280;47485;51.378;-1.342;2023-02-18T12:06:33;100809.65;;;5.20;56.17
63339;BME280;47485;51.378;-1.342;2023-02-18T12:09:05;100807.28;;;5.64;54.95
63339;BME280;47485;51.378;-1.342;2023-02-18T12:11:36;100804.60;;;4.49;56.74
63339;BME280;47485;51.378;-1.342;2023-02-18T12:14:13;100802.67;;;5.37;56.50
63339;BME280;47485;51.378;-1.342;2023-02-18T12:16:48;100811.18;;;4.03;58.44
63339;BME280;47485;51.378;-1.342;2023-02-18T12:19:40;100808.06;;;5.22;59.08
63339;BME280;47485;51.378;-1.342;2023-02-18T12:22:17;100809.76;;;4.11;59.47
63339;BME280;47485;51.378;-1.342;2023-02-18T12:25:02;100798.20;;;4.61;60.47
63339;BME280;47485;51.378;-1.342;2023-02-18T12:27:35;100799.59;;;4.12;58.44
63339;BME280;47485;51.378;-1.342;2023-02-18T12:30:28;100803.32;;;4.36;60.10
63339;BME280;47485;51.378;-1.342;2023-02-18T12:33:04;100792.69;;;4.30;59.89
63339;BME280;47485;51.378;-1.342;2023-02-18T12:35:47;100791.54;;;4.41;59.34
63339;BME280;47485;51.378;-1.342;2023-02-18T12:38:38;100780.58;;;5.07;59.10
63339;BME280;47485;51.378;-1.342;2023-02-18T12:41:22;100791.80;;;3.80;60.08
63339;BME280;47485;51.378;-1.342;2023-02-18T12:43:54;100794.66;;;3.63;61.30
63339;BME280;47485;51.378;-1.342;2023-02-18T12:46:36;100790.95;;;3.48;60.10
63339;BME280;47485;51.378;-1.342;2023-02-18T12:49:18;100789.22;;;3.46;60.12
63339;BME280;47485;51.378;-1.342;2023-02-18T12:52:00;100789.99;;;3.76;60.14
63339;BME280;47485;51.378;-1.342;2023-02-18T12:54:39;100781.53;;;3.23;60.41
63339;BME280;47485;51.378;-1.342;2023-02-18T12:57:42;100786.57;;;3.67;59.99
63339;BME280;47485;51.378;-1.342;2023-02-18T13:00:37;100782.56;;;3.86;56.61
63339;BME280;47485;51.378;-1.342;2023-02-18T13:03:55;100777.26;;;5.12;55.79
63339;BME280;47485;51.378;-1.342;2023-02-18T13:06:40;100792.00;;;4.48;59.37